createdAt,value
2022-12-09T00:01:53.498Z,14.75
2022-12-09T00:04:58.434Z,17.15
2022-12-09T00:08:04.612Z,22.27
2022-12-09T00:11:10.196Z,23.30
2022-12-09T00:14:16.251Z,31.35
2022-12-09T00:17:22.770Z,34.45
2022-12-09T00:20:28.898Z,37.10
2022-12-09T00:23:34.639Z,35.98
2022-12-09T00:26:39.973Z,37.60
2022-12-09T00:29:45.627Z,32.58
2022-12-09T00:32:50.634Z,31.45
2022-12-09T00:35:56.503Z,30.90
2022-12-09T00:39:01.552Z,31.68
2022-12-09T00:42:06.915Z,27.75
2022-12-09T00:45:15.077Z,22.60
2022-12-09T00:48:20.518Z,20.23
2022-12-09T00:51:30.065Z,20.77
2022-12-09T00:54:35.388Z,23.35
2022-12-09T00:57:40.191Z,23.12
2022-12-09T01:00:46.881Z,23.02
2022-12-09T01:03:51.470Z,20.43
2022-12-09T01:06:58.739Z,17.45
2022-12-09T01:10:06.388Z,14.55
2022-12-09T01:13:12.572Z,12.40
2022-12-09T01:16:11.686Z,11.93
2022-12-09T01:19:21.341Z,13.10
2022-12-09T01:22:26.522Z,11.07
2022-12-09T01:25:33.115Z,12.00
2022-12-09T01:28:39.572Z,12.15
2022-12-09T01:31:48.174Z,14.80
2022-12-09T01:34:54.349Z,14.28
2022-12-09T01:37:59.325Z,17.07
2022-12-09T01:41:03.893Z,17.70
2022-12-09T01:44:38.270Z,18.85
2022-12-09T01:47:44.517Z,22.70
2022-12-09T01:50:50.635Z,21.27
2022-12-09T01:54:00.171Z,22.55
2022-12-09T01:57:05.577Z,25.57
2022-12-09T02:00:11.489Z,25.82
2022-12-09T02:03:18.849Z,30.23
2022-12-09T02:06:23.982Z,32.65
2022-12-09T02:09:30.575Z,31.82
2022-12-09T02:12:40.993Z,35.43
2022-12-09T02:15:53.838Z,35.40
2022-12-09T02:19:04.318Z,37.90
2022-12-09T02:22:12.687Z,39.53
2022-12-09T02:25:41.922Z,37.95
2022-12-09T02:29:27.651Z,34.80
2022-12-09T02:32:57.822Z,38.17
2022-12-09T02:36:17.358Z,34.75
2022-12-09T02:39:24.575Z,30.48
2022-12-09T02:42:32.459Z,29.65
2022-12-09T02:45:39.738Z,27.93
2022-12-09T02:48:53.135Z,27.52
2022-12-09T02:51:52.643Z,24.87
2022-12-09T02:54:59.296Z,23.83
2022-12-09T02:58:06.695Z,24.95
2022-12-09T03:01:12.119Z,24.70
2022-12-09T03:04:17.971Z,21.40
2022-12-09T03:07:36.533Z,19.50
2022-12-09T03:11:07.726Z,18.80
2022-12-09T03:14:33.597Z,19.27
2022-12-09T03:17:50.890Z,17.65
2022-12-09T03:20:56.810Z,19.00
2022-12-09T03:24:02.555Z,18.60
2022-12-09T03:27:09.142Z,18.98
2022-12-09T03:30:14.337Z,21.42
2022-12-09T03:33:21.369Z,20.12
2022-12-09T03:36:27.068Z,20.68
2022-12-09T03:39:34.150Z,20.37
2022-12-09T03:42:47.960Z,19.70
2022-12-09T03:45:55.597Z,17.12
2022-12-09T03:48:56.419Z,16.75
2022-12-09T03:51:56.737Z,15.53
2022-12-09T03:54:56.085Z,16.42
2022-12-09T03:58:02.929Z,15.38
2022-12-09T04:01:09.011Z,15.65
2022-12-09T04:04:15.467Z,13.90
2022-12-09T04:07:20.749Z,15.70
2022-12-09T04:10:26.122Z,14.93
2022-12-09T04:13:31.539Z,15.60
2022-12-09T04:16:37.298Z,16.32
2022-12-09T04:19:42.757Z,17.25
2022-12-09T04:22:49.175Z,18.62
2022-12-09T04:25:54.278Z,16.10
2022-12-09T04:28:59.084Z,15.13
2022-12-09T04:32:04.589Z,15.00
2022-12-09T04:35:10.164Z,17.48
2022-12-09T04:38:18.488Z,16.50
2022-12-09T04:41:25.992Z,16.60
2022-12-09T04:44:31.644Z,15.55
2022-12-09T04:47:37.504Z,14.60
2022-12-09T04:50:43.126Z,16.10
2022-12-09T04:53:48.814Z,16.35
2022-12-09T04:56:54.240Z,17.30
2022-12-09T05:00:00.718Z,16.80
2022-12-09T05:03:05.944Z,15.70
2022-12-09T05:06:13.366Z,15.98
2022-12-09T05:09:18.473Z,16.55
2022-12-09T05:12:24.773Z,15.55
2022-12-09T05:15:29.920Z,13.83
2022-12-09T05:18:36.110Z,11.93
2022-12-09T05:21:42.282Z,11.80
2022-12-09T05:24:50.426Z,12.53
2022-12-09T05:27:56.151Z,11.97
2022-12-09T05:31:01.790Z,10.60
2022-12-09T05:34:08.614Z,10.68
2022-12-09T05:37:14.734Z,10.28
2022-12-09T05:40:16.087Z,9.75
2022-12-09T05:43:21.735Z,10.95
2022-12-09T05:46:28.192Z,10.48
2022-12-09T05:49:34.649Z,12.60
2022-12-09T05:52:40.337Z,15.28
2022-12-09T05:55:45.783Z,14.00
2022-12-09T05:58:52.281Z,14.98
2022-12-09T06:01:57.561Z,15.88
2022-12-09T06:05:03.222Z,15.45
2022-12-09T06:07:58.240Z,15.35
2022-12-09T06:11:04.109Z,16.25
2022-12-09T06:14:10.163Z,16.15
2022-12-09T06:17:15.950Z,16.57
2022-12-09T06:20:22.261Z,16.87
2022-12-09T06:23:28.243Z,14.45
2022-12-09T06:26:41.166Z,15.58
2022-12-09T06:29:46.853Z,15.93
2022-12-09T06:32:52.858Z,15.75
2022-12-09T06:35:58.910Z,14.15
2022-12-09T06:39:10.204Z,15.60
2022-12-09T06:42:12.521Z,15.48
2022-12-09T06:45:18.686Z,14.00
2022-12-09T06:48:18.059Z,15.70
2022-12-09T06:51:21.647Z,16.27
2022-12-09T06:54:26.736Z,16.03
2022-12-09T06:57:32.896Z,16.80
2022-12-09T07:00:39.200Z,16.90
2022-12-09T07:03:45.746Z,17.67
2022-12-09T07:06:56.574Z,16.75
2022-12-09T07:10:02.176Z,15.15
2022-12-09T07:13:09.174Z,16.90
2022-12-09T07:16:16.573Z,16.10
2022-12-09T07:19:23.197Z,15.83
2022-12-09T07:22:29.594Z,15.68
2022-12-09T07:25:40.741Z,17.30
2022-12-09T07:31:55.622Z,14.87
2022-12-09T07:35:02.280Z,15.48
2022-12-09T07:38:09.785Z,17.27
2022-12-09T07:41:26.569Z,18.45
2022-12-09T07:47:42.465Z,17.45
2022-12-09T07:50:48.548Z,16.52
2022-12-09T07:53:54.186Z,16.50
2022-12-09T07:56:55.334Z,18.02
2022-12-09T08:00:04.818Z,15.98
2022-12-09T08:03:10.329Z,16.50
2022-12-09T08:06:16.430Z,16.80
2022-12-09T08:09:25.457Z,16.32
2022-12-09T08:12:30.775Z,17.45
2022-12-09T08:15:37.096Z,18.57
2022-12-09T08:18:42.286Z,19.77
2022-12-09T08:21:52.966Z,19.30
2022-12-09T08:24:55.197Z,16.50
2022-12-09T08:27:54.309Z,17.60
2022-12-09T08:31:01.101Z,17.50
2022-12-09T08:34:06.403Z,17.80
2022-12-09T08:37:13.952Z,16.90
2022-12-09T08:40:19.197Z,18.52
2022-12-09T08:43:25.188Z,17.75
2022-12-09T08:46:30.814Z,18.40
2022-12-09T08:49:37.468Z,18.15
2022-12-09T08:52:43.728Z,17.12
2022-12-09T08:55:50.322Z,17.77
2022-12-09T08:58:56.472Z,18.45
2022-12-09T09:02:03.163Z,17.65
2022-12-09T09:05:10.659Z,15.72
2022-12-09T09:08:18.350Z,17.07
2022-12-09T09:11:30.782Z,17.05
2022-12-09T09:14:36.366Z,15.72
2022-12-09T09:17:49.887Z,17.37
2022-12-09T09:20:53.136Z,18.00
2022-12-09T09:23:52.640Z,16.97
2022-12-09T09:26:39.407Z,17.45
2022-12-09T09:29:32.522Z,18.95
2022-12-09T09:32:26.420Z,17.35
2022-12-09T09:35:32.360Z,18.05
2022-12-09T09:38:41.026Z,17.00
2022-12-09T09:42:15.942Z,18.12
2022-12-09T09:45:26.941Z,17.95
2022-12-09T09:48:44.182Z,17.02
2022-12-09T09:51:51.303Z,19.10
2022-12-09T09:54:49.557Z,18.25
2022-12-09T09:57:52.397Z,19.37
2022-12-09T10:01:26.731Z,17.57
2022-12-09T10:04:43.505Z,19.85
2022-12-09T10:08:02.103Z,16.60
2022-12-09T10:15:25.896Z,18.82
2022-12-09T10:18:42.248Z,19.05
2022-12-09T10:21:42.495Z,17.85
2022-12-09T10:24:48.604Z,18.12
2022-12-09T10:28:05.828Z,19.07
2022-12-09T10:31:12.169Z,18.35
2022-12-09T10:34:17.736Z,19.77
2022-12-09T10:37:47.278Z,19.25
2022-12-09T10:41:04.400Z,19.55
2022-12-09T10:44:09.688Z,19.42
2022-12-09T10:47:23.943Z,20.25
2022-12-09T10:50:48.493Z,20.60
2022-12-09T10:54:00.152Z,19.40
2022-12-09T10:57:30.528Z,19.48
2022-12-09T11:00:35.137Z,19.27
2022-12-09T11:03:49.249Z,20.35
2022-12-09T11:06:59.330Z,20.10
2022-12-09T11:10:05.681Z,19.30
2022-12-09T11:13:18.916Z,19.20
2022-12-09T11:16:25.370Z,18.98
2022-12-09T11:19:32.517Z,20.08
2022-12-09T11:22:47.545Z,20.15
2022-12-09T11:25:53.970Z,20.43
2022-12-09T11:29:00.939Z,19.40
2022-12-09T11:32:08.040Z,22.00
2022-12-09T11:35:14.456Z,20.15
2022-12-09T11:45:07.208Z,20.62
2022-12-09T11:45:44.189Z,19.40
2022-12-09T11:48:48.794Z,18.07
2022-12-09T11:51:57.628Z,17.42
2022-12-09T11:55:30.442Z,16.57
2022-12-09T11:58:36.737Z,18.80
2022-12-09T12:01:31.115Z,18.17
2022-12-09T12:04:27.427Z,19.20
2022-12-09T12:07:30.458Z,16.02
2022-12-09T12:10:46.542Z,17.75
2022-12-09T12:13:56.687Z,19.27
2022-12-09T12:20:25.541Z,20.10
2022-12-09T12:23:56.792Z,19.37
2022-12-09T12:27:31.785Z,18.00
2022-12-09T12:30:47.360Z,18.95
2022-12-09T12:34:28.039Z,20.23
2022-12-09T12:37:41.448Z,19.57
2022-12-09T12:41:16.949Z,19.67
2022-12-09T12:45:01.994Z,20.20
2022-12-09T12:48:13.386Z,19.42
2022-12-09T12:51:25.827Z,20.25
2022-12-09T12:54:57.342Z,20.45
2022-12-09T12:58:13.764Z,19.95
2022-12-09T13:01:39.284Z,22.17
2022-12-09T13:04:55.771Z,20.77
2022-12-09T13:08:14.452Z,21.90
2022-12-09T13:12:00.875Z,22.22
2022-12-09T13:15:09.276Z,20.10
2022-12-09T13:18:25.310Z,20.95
2022-12-09T13:21:29.972Z,20.92
2022-12-09T13:25:21.541Z,20.82
2022-12-09T13:28:37.366Z,21.23
2022-12-09T13:31:47.156Z,22.25
2022-12-09T13:34:56.809Z,21.10
2022-12-09T13:38:07.787Z,22.02
2022-12-09T13:41:13.704Z,19.20
2022-12-09T13:44:27.913Z,20.43
2022-12-09T13:47:47.900Z,20.10
2022-12-09T13:51:06.384Z,21.12
2022-12-09T13:54:16.876Z,21.75
2022-12-09T13:57:26.553Z,20.32
2022-12-09T14:00:32.926Z,21.15
2022-12-09T14:03:44.252Z,21.37
2022-12-09T14:07:10.650Z,23.67
2022-12-09T14:10:15.443Z,24.00
2022-12-09T14:13:37.543Z,22.60
2022-12-09T14:16:47.148Z,21.60
2022-12-09T14:20:06.693Z,22.20
2022-12-09T14:23:23.658Z,21.57
2022-12-09T14:26:29.170Z,21.10
2022-12-09T14:30:03.744Z,21.62
2022-12-09T14:33:09.368Z,22.42
2022-12-09T14:36:34.027Z,20.60
2022-12-09T14:39:46.012Z,23.00
2022-12-09T14:43:01.985Z,22.27
2022-12-09T14:46:16.250Z,22.87
2022-12-09T14:49:48.329Z,25.15
2022-12-09T14:52:47.439Z,23.83
2022-12-09T14:55:55.336Z,24.63
2022-12-09T14:59:04.408Z,24.52
2022-12-09T15:02:15.188Z,22.37
2022-12-09T15:05:25.897Z,22.98
2022-12-09T15:08:54.842Z,22.05
2022-12-09T15:12:00.472Z,22.60
2022-12-09T15:15:13.825Z,23.77
2022-12-09T15:18:30.836Z,22.10
2022-12-09T15:21:44.720Z,20.25
2022-12-09T15:24:51.256Z,20.75
2022-12-09T15:27:59.858Z,21.25
2022-12-09T15:31:21.010Z,20.08
2022-12-09T15:34:33.422Z,21.62
2022-12-09T15:37:42.812Z,21.05
2022-12-09T15:40:50.399Z,24.20
2022-12-09T15:43:55.664Z,22.50
2022-12-09T15:47:03.312Z,25.08
2022-12-09T15:50:34.754Z,25.60
2022-12-09T15:53:53.778Z,24.32
2022-12-09T15:57:13.293Z,26.50
2022-12-09T16:00:20.237Z,23.92
2022-12-09T16:03:25.700Z,25.57
2022-12-09T16:06:32.572Z,22.80
2022-12-09T16:09:38.269Z,25.35
2022-12-09T16:12:44.429Z,22.70
2022-12-09T16:16:02.851Z,22.10
2022-12-09T16:19:09.531Z,20.75
2022-12-09T16:22:39.698Z,19.25
2022-12-09T16:25:52.758Z,19.95
2022-12-09T16:28:58.744Z,20.95
2022-12-09T16:32:31.260Z,21.27
2022-12-09T16:35:50.873Z,20.23
2022-12-09T16:38:57.270Z,20.88
2022-12-09T16:42:11.304Z,18.77
2022-12-09T16:45:53.192Z,20.60
2022-12-09T16:49:04.437Z,18.37
2022-12-09T16:52:05.724Z,15.58
2022-12-09T16:55:10.840Z,15.72
2022-12-09T16:58:17.907Z,13.38
2022-12-09T17:01:26.465Z,13.43
2022-12-09T17:04:43.403Z,12.18
2022-12-09T17:07:48.730Z,14.20
2022-12-09T17:10:54.345Z,12.65
2022-12-09T17:14:00.118Z,11.50
2022-12-09T17:17:05.711Z,12.03
2022-12-09T17:20:11.359Z,10.20
2022-12-09T17:23:18.554Z,11.33
2022-12-09T17:26:27.105Z,10.58
2022-12-09T17:29:32.950Z,10.63
2022-12-09T17:32:41.342Z,9.90
2022-12-09T17:35:50.300Z,11.03
2022-12-09T17:38:54.827Z,10.72
2022-12-09T17:41:59.462Z,10.55
2022-12-09T17:45:04.807Z,9.75
2022-12-09T17:48:09.868Z,10.05
2022-12-09T17:51:24.582Z,10.05
2022-12-09T17:54:29.678Z,10.35
2022-12-09T17:57:35.853Z,10.23
2022-12-09T18:00:41.746Z,9.88
2022-12-09T18:03:56.417Z,9.73
2022-12-09T18:06:56.964Z,9.25
2022-12-09T18:10:01.621Z,9.78
2022-12-09T18:13:06.651Z,8.80
2022-12-09T18:16:13.509Z,8.43
2022-12-09T18:19:23.363Z,8.75
2022-12-09T18:22:28.871Z,10.05
2022-12-09T18:25:34.312Z,9.53
2022-12-09T18:28:39.626Z,9.88
2022-12-09T18:31:37.183Z,12.35
2022-12-09T18:34:30.088Z,13.43
2022-12-09T18:37:28.623Z,13.35
2022-12-09T18:40:24.895Z,15.10
2022-12-09T18:43:29.688Z,17.20
2022-12-09T18:46:36.851Z,16.93
2022-12-09T18:49:43.636Z,18.27
2022-12-09T18:52:51.169Z,20.48
2022-12-09T18:55:56.754Z,19.75
2022-12-09T18:59:07.421Z,20.32
2022-12-09T19:02:09.379Z,20.75
2022-12-09T19:05:13.840Z,23.10
2022-12-09T19:08:20.879Z,21.75
2022-12-09T19:11:25.929Z,20.65
2022-12-09T19:14:33.520Z,23.07
2022-12-09T19:17:39.654Z,24.47
2022-12-09T19:20:38.511Z,22.75
2022-12-09T19:23:47.901Z,23.83
2022-12-09T19:26:53.942Z,22.52
2022-12-09T19:30:00.244Z,25.15
2022-12-09T19:33:05.482Z,25.05
2022-12-09T19:36:11.595Z,23.52
2022-12-09T19:39:17.618Z,26.40
2022-12-09T19:42:23.171Z,24.02
2022-12-09T19:45:28.008Z,23.87
2022-12-09T19:48:33.611Z,25.08
2022-12-09T19:51:32.433Z,27.25
2022-12-09T19:54:38.404Z,23.10
2022-12-09T19:57:42.629Z,23.87
2022-12-09T20:00:49.420Z,23.77
2022-12-09T20:03:55.686Z,24.98
2022-12-09T20:07:04.973Z,26.90
2022-12-09T20:10:00.920Z,25.97
2022-12-09T20:13:07.589Z,25.72
2022-12-09T20:16:18.263Z,26.25
2022-12-09T20:19:25.145Z,25.60
2022-12-09T20:22:30.262Z,28.23
2022-12-09T20:25:35.544Z,26.12
2022-12-09T20:28:41.147Z,28.92
2022-12-09T20:31:47.756Z,24.85
2022-12-09T20:34:56.163Z,25.77
2022-12-09T20:38:00.944Z,24.05
2022-12-09T20:41:05.943Z,25.82
2022-12-09T20:44:13.377Z,23.52
2022-12-09T20:47:18.629Z,24.72
2022-12-09T20:50:25.789Z,25.05
2022-12-09T20:53:31.063Z,23.65
2022-12-09T20:56:37.778Z,23.55
2022-12-09T20:59:44.071Z,24.40
2022-12-09T21:02:49.739Z,23.18
2022-12-09T21:05:55.920Z,23.65
2022-12-09T21:09:00.874Z,24.20
2022-12-09T21:12:07.325Z,24.37
2022-12-09T21:15:12.630Z,29.02
2022-12-09T21:18:18.051Z,24.50
2022-12-09T21:21:24.783Z,25.05
2022-12-09T21:24:31.326Z,28.17
2022-12-09T21:27:37.440Z,24.90
2022-12-09T21:30:42.351Z,25.17
2022-12-09T21:33:48.497Z,24.47
2022-12-09T21:36:50.414Z,22.30
2022-12-09T21:39:43.797Z,24.32
2022-12-09T21:42:49.207Z,25.30
2022-12-09T21:45:54.152Z,24.35
2022-12-09T21:49:04.090Z,26.15
2022-12-09T21:52:08.609Z,22.50
2022-12-09T21:55:14.024Z,26.23
2022-12-09T21:58:18.887Z,23.57
2022-12-09T22:01:29.699Z,24.45
2022-12-09T22:04:35.103Z,22.17
2022-12-09T22:07:40.342Z,24.23
